createdAt,value
2018-11-26T00:00:54.026Z,33.13
2018-11-26T00:07:58.047Z,31.47
2018-11-26T00:15:02.338Z,31.80
2018-11-26T00:22:06.827Z,30.40
2018-11-26T00:29:11.151Z,29.60
2018-11-26T00:36:15.169Z,29.77
2018-11-26T00:43:23.115Z,28.97
2018-11-26T00:50:27.158Z,27.83
2018-11-26T00:57:31.193Z,31.00
2018-11-26T01:04:41.590Z,29.87
2018-11-26T01:11:45.629Z,28.87
2018-11-26T01:18:49.654Z,27.60
2018-11-26T01:25:53.695Z,28.43
2018-11-26T01:32:57.731Z,29.00
2018-11-26T01:40:01.762Z,29.90
2018-11-26T01:47:05.811Z,27.33
2018-11-26T01:54:13.502Z,29.43
2018-11-26T02:01:17.609Z,27.83
2018-11-26T02:08:21.620Z,27.27
2018-11-26T02:15:34.429Z,27.67
2018-11-26T02:22:39.500Z,26.63
2018-11-26T02:29:43.515Z,27.33
2018-11-26T02:36:47.531Z,28.17
2018-11-26T02:43:51.849Z,26.83
2018-11-26T02:50:55.876Z,27.30
2018-11-26T02:57:59.890Z,26.63
2018-11-26T03:05:04.479Z,26.07
2018-11-26T03:12:08.538Z,26.40
2018-11-26T03:19:12.605Z,27.73
2018-11-26T03:26:16.666Z,26.23
2018-11-26T03:33:21.644Z,28.40
2018-11-26T03:40:25.711Z,27.93
2018-11-26T03:47:30.188Z,27.13
2018-11-26T03:54:34.345Z,26.97
2018-11-26T04:01:38.374Z,27.37
2018-11-26T04:08:42.538Z,27.50
2018-11-26T04:15:46.549Z,28.23
2018-11-26T04:22:50.742Z,25.97
2018-11-26T04:29:54.847Z,28.50
2018-11-26T04:36:58.933Z,28.37
2018-11-26T04:44:06.641Z,26.43
2018-11-26T04:51:10.910Z,25.47
2018-11-26T04:58:14.945Z,26.47
2018-11-26T05:05:18.976Z,26.17
2018-11-26T05:12:23.852Z,26.50
2018-11-26T05:19:27.916Z,25.83
2018-11-26T05:26:31.987Z,28.17
2018-11-26T05:33:40.114Z,27.63
2018-11-26T05:40:44.147Z,24.87
2018-11-26T05:47:48.201Z,26.47
2018-11-26T05:55:04.646Z,27.03
2018-11-26T06:02:09.891Z,24.97
2018-11-26T06:09:13.901Z,25.40
2018-11-26T06:16:17.971Z,25.13
2018-11-26T06:23:23.234Z,25.20
2018-11-26T06:30:27.678Z,25.00
2018-11-26T06:37:31.668Z,24.80
2018-11-26T06:44:42.180Z,22.73
2018-11-26T06:51:46.183Z,23.00
2018-11-26T06:58:50.219Z,23.23
2018-11-26T07:05:54.221Z,23.27
2018-11-26T07:12:58.509Z,22.23
2018-11-26T07:20:03.986Z,20.60
2018-11-26T07:27:08.166Z,20.90
2018-11-26T07:34:15.885Z,21.87
2018-11-26T07:41:19.994Z,22.07
2018-11-26T07:48:24.181Z,22.60
2018-11-26T07:55:28.284Z,22.07
2018-11-26T08:02:33.501Z,20.60
2018-11-26T08:09:37.558Z,22.10
2018-11-26T08:16:41.561Z,21.67
2018-11-26T08:23:46.037Z,21.33
2018-11-26T08:30:50.038Z,21.00
2018-11-26T08:37:59.454Z,21.03
2018-11-26T08:45:06.705Z,21.83
2018-11-26T08:52:10.985Z,22.03
2018-11-26T08:59:15.030Z,21.23
2018-11-26T09:06:19.163Z,24.37
2018-11-26T09:13:23.322Z,23.30
2018-11-26T09:20:27.329Z,21.90
2018-11-26T09:27:31.403Z,23.10
2018-11-26T09:34:35.531Z,21.93
2018-11-26T09:41:40.888Z,22.87
2018-11-26T09:48:44.927Z,22.50
2018-11-26T09:55:48.958Z,21.47
2018-11-26T10:02:53.258Z,22.47
2018-11-26T10:09:57.339Z,21.90
2018-11-26T10:17:01.362Z,21.37
2018-11-26T10:24:05.757Z,21.87
2018-11-26T10:31:09.873Z,21.90
2018-11-26T10:38:13.938Z,20.37
2018-11-26T10:45:19.691Z,20.87
2018-11-26T10:52:23.697Z,20.10
2018-11-26T10:59:27.720Z,19.47
2018-11-26T11:06:31.725Z,19.27
2018-11-26T11:13:35.859Z,18.67
2018-11-26T11:20:39.881Z,18.23
2018-11-26T11:27:44.950Z,18.47
2018-11-26T11:34:50.137Z,19.23
2018-11-26T11:41:54.308Z,17.40
2018-11-26T11:48:58.382Z,17.73
2018-11-26T11:56:02.452Z,17.90
2018-11-26T12:03:08.874Z,19.40
2018-11-26T12:10:13.174Z,17.83
2018-11-26T12:17:17.211Z,18.63
2018-11-26T12:24:21.759Z,17.13
2018-11-26T12:31:25.826Z,18.37
2018-11-26T12:38:29.854Z,18.67
2018-11-26T12:45:35.148Z,18.53
2018-11-26T12:52:39.748Z,18.50
2018-11-26T12:59:43.779Z,17.60
2018-11-26T13:06:47.840Z,17.20
2018-11-26T13:13:52.431Z,17.23
2018-11-26T13:20:56.468Z,15.60
2018-11-26T13:28:01.687Z,14.97
2018-11-26T13:35:07.680Z,13.97
2018-11-26T13:42:11.945Z,12.70
2018-11-26T13:49:16.021Z,13.90
2018-11-26T13:56:20.265Z,12.73
2018-11-26T14:03:28.612Z,12.03
2018-11-26T14:10:42.329Z,12.00
2018-11-26T14:17:46.391Z,12.30
2018-11-26T14:24:50.531Z,14.30
2018-11-26T14:31:54.736Z,20.50
2018-11-26T14:38:58.816Z,18.03
2018-11-26T14:46:02.862Z,8.57
2018-11-26T14:53:09.129Z,13.30
2018-11-26T15:00:15.742Z,18.37
2018-11-26T15:07:25.624Z,14.33
2018-11-26T15:14:29.807Z,8.70
2018-11-26T15:21:33.885Z,11.17
2018-11-26T15:28:37.896Z,8.43
2018-11-26T15:35:41.926Z,10.53
2018-11-26T15:42:46.216Z,6.53
2018-11-26T15:49:50.234Z,7.37
2018-11-26T15:56:54.261Z,6.33
2018-11-26T16:04:07.827Z,7.63
2018-11-26T16:11:11.840Z,6.00
2018-11-26T16:18:17.670Z,6.10
2018-11-26T16:25:22.943Z,5.60
2018-11-26T16:32:26.976Z,5.90
2018-11-26T16:39:31.056Z,5.53
2018-11-26T16:46:35.059Z,9.20
2018-11-26T16:53:39.132Z,7.40
2018-11-26T17:00:43.139Z,6.27
2018-11-26T17:07:47.186Z,5.37
2018-11-26T17:14:51.232Z,5.87
2018-11-26T17:21:55.277Z,5.90
2018-11-26T17:28:59.299Z,5.53
2018-11-26T17:36:03.777Z,5.97
2018-11-26T17:43:09.056Z,6.23
2018-11-26T17:50:48.610Z,5.87
2018-11-26T17:57:52.692Z,5.50
2018-11-26T18:05:04.131Z,4.90
2018-11-26T18:12:14.377Z,4.40
2018-11-26T18:19:18.419Z,4.33
2018-11-26T18:26:22.470Z,4.93
2018-11-26T18:33:36.363Z,7.53
2018-11-26T18:40:41.554Z,12.37
2018-11-26T18:47:46.308Z,14.47
2018-11-26T18:54:54.070Z,10.87
2018-11-26T19:01:58.112Z,10.10
2018-11-26T19:09:02.276Z,10.93
2018-11-26T19:16:09.826Z,7.53
2018-11-26T19:23:14.480Z,5.40
2018-11-26T19:30:22.979Z,7.30
2018-11-26T19:37:23.436Z,5.23
2018-11-26T19:44:31.463Z,6.17
2018-11-26T19:51:35.500Z,5.60
2018-11-26T19:58:39.639Z,5.60
2018-11-26T20:05:52.973Z,5.10
2018-11-26T20:12:57.008Z,5.23
2018-11-26T20:20:01.055Z,4.87
2018-11-26T20:27:05.210Z,4.80
2018-11-26T20:34:12.885Z,4.70
2018-11-26T20:41:16.916Z,4.67
2018-11-26T20:48:20.944Z,4.50
2018-11-26T20:55:26.127Z,5.00
2018-11-26T21:02:30.141Z,4.50
2018-11-26T21:09:34.201Z,4.50
2018-11-26T21:16:38.259Z,4.53
2018-11-26T21:23:44.195Z,4.73
2018-11-26T21:30:52.100Z,4.57
2018-11-26T21:37:52.906Z,4.70
2018-11-26T21:46:14.709Z,4.97
2018-11-26T21:53:18.823Z,4.87
2018-11-26T22:00:25.434Z,4.87
2018-11-26T22:07:29.598Z,5.73
2018-11-26T22:14:33.755Z,4.97
2018-11-26T22:21:37.814Z,5.53
2018-11-26T22:28:46.347Z,6.23
2018-11-26T22:35:50.837Z,7.20
2018-11-26T22:42:55.330Z,6.73
2018-11-26T22:50:00.608Z,6.47
2018-11-26T22:57:07.467Z,6.90
2018-11-26T23:04:12.595Z,7.60
2018-11-26T23:11:18.076Z,7.20
2018-11-26T23:18:25.982Z,6.97
2018-11-26T23:25:30.067Z,8.03
2018-11-26T23:39:44.480Z,7.70
2018-11-26T23:46:48.544Z,8.67
2018-11-26T23:53:52.728Z,8.77
